sensor_id;sensor_type;location;lat;lon;timestamp;pressure;altitude;pressure_sealevel;temperature;humidity
11712;BME280;5912;51.034;6.984;2023-01-29T00:01:29;101038.78;;;-7.39;96.15
11712;BME280;5912;51.034;6.984;2023-01-29T00:03:54;100998.41;;;-7.63;96.39
11712;BME280;5912;51.034;6.984;2023-01-29T00:06:20;101037.63;;;-7.33;96.99
11712;BME280;5912;51.034;6.984;2023-01-29T00:08:47;101037.47;;;-7.30;96.45
11712;BME280;5912;51.034;6.984;2023-01-29T00:11:12;101031.38;;;-7.28;96.26
11712;BME280;5912;51.034;6.984;2023-01-29T00:13:38;101033.16;;;-7.30;96.88
11712;BME280;5912;51.034;6.984;2023-01-29T00:16:03;101040.78;;;-7.28;96.34
11712;BME280;5912;51.034;6.984;2023-01-29T00:18:30;101026.69;;;-7.35;96.32
11712;BME280;5912;51.034;6.984;2023-01-29T00:20:55;101013.41;;;-7.42;96.24
11712;BME280;5912;51.034;6.984;2023-01-29T00:23:24;101011.84;;;-7.44;96.13
11712;BME280;5912;51.034;6.984;2023-01-29T00:25:50;101027.09;;;-7.43;96.61
11712;BME280;5912;51.034;6.984;2023-01-29T00:28:15;101022.78;;;-7.42;96.55
11712;BME280;5912;51.034;6.984;2023-01-29T00:30:40;101012.75;;;-7.45;96.71
11712;BME280;5912;51.034;6.984;2023-01-29T00:33:06;101029.38;;;-7.38;96.50
11712;BME280;5912;51.034;6.984;2023-01-29T00:35:32;101010.78;;;-7.40;96.05
11712;BME280;5912;51.034;6.984;2023-01-29T00:37:57;101009.78;;;-7.38;96.72
11712;BME280;5912;51.034;6.984;2023-01-29T00:40:24;101004.44;;;-7.33;96.71
11712;BME280;5912;51.034;6.984;2023-01-29T00:42:49;101011.78;;;-7.27;97.05
11712;BME280;5912;51.034;6.984;2023-01-29T00:45:33;101003.38;;;-7.29;96.41
11712;BME280;5912;51.034;6.984;2023-01-29T00:48:01;101000.31;;;-7.20;96.28
11712;BME280;5912;51.034;6.984;2023-01-29T00:50:26;100994.50;;;-7.22;96.36
11712;BME280;5912;51.034;6.984;2023-01-29T00:52:52;100996.13;;;-7.21;96.77
11712;BME280;5912;51.034;6.984;2023-01-29T00:55:19;101001.22;;;-7.21;96.36
11712;BME280;5912;51.034;6.984;2023-01-29T00:57:45;101006.50;;;-7.24;96.09
11712;BME280;5912;51.034;6.984;2023-01-29T01:00:13;100999.09;;;-7.29;95.43
11712;BME280;5912;51.034;6.984;2023-01-29T01:02:39;100998.69;;;-7.37;95.58
11712;BME280;5912;51.034;6.984;2023-01-29T01:05:23;101005.50;;;-7.37;95.60
11712;BME280;5912;51.034;6.984;2023-01-29T01:07:51;100998.84;;;-7.40;95.62
11712;BME280;5912;51.034;6.984;2023-01-29T01:10:19;101005.66;;;-7.40;95.51
11712;BME280;5912;51.034;6.984;2023-01-29T01:13:06;101002.19;;;-7.39;95.70
11712;BME280;5912;51.034;6.984;2023-01-29T01:15:35;100997.94;;;-7.39;96.55
11712;BME280;5912;51.034;6.984;2023-01-29T01:18:02;100988.72;;;-7.41;95.85
11712;BME280;5912;51.034;6.984;2023-01-29T01:20:29;100978.41;;;-7.55;95.73
11712;BME280;5912;51.034;6.984;2023-01-29T01:22:55;100996.47;;;-7.43;96.37
11712;BME280;5912;51.034;6.984;2023-01-29T01:25:22;101000.81;;;-7.45;95.81
11712;BME280;5912;51.034;6.984;2023-01-29T01:27:52;101000.91;;;-7.46;95.96
11712;BME280;5912;51.034;6.984;2023-01-29T01:30:17;100997.41;;;-7.45;96.68
11712;BME280;5912;51.034;6.984;2023-01-29T01:32:43;100974.84;;;-7.69;96.70
11712;BME280;5912;51.034;6.984;2023-01-29T01:35:10;101004.97;;;-7.59;96.70
11712;BME280;5912;51.034;6.984;2023-01-29T01:37:37;101009.41;;;-7.63;96.39
11712;BME280;5912;51.034;6.984;2023-01-29T01:40:12;101018.31;;;-7.54;96.62
11712;BME280;5912;51.034;6.984;2023-01-29T01:42:42;101014.88;;;-7.53;95.94
11712;BME280;5912;51.034;6.984;2023-01-29T01:45:17;101012.31;;;-7.53;96.09
11712;BME280;5912;51.034;6.984;2023-01-29T01:47:46;100992.97;;;-7.57;96.49
11712;BME280;5912;51.034;6.984;2023-01-29T01:50:17;100998.06;;;-7.57;96.54
11712;BME280;5912;51.034;6.984;2023-01-29T01:52:47;100988.03;;;-7.60;96.53
11712;BME280;5912;51.034;6.984;2023-01-29T01:55:16;100987.19;;;-7.61;96.84
11712;BME280;5912;51.034;6.984;2023-01-29T01:57:44;100992.06;;;-7.56;96.55
11712;BME280;5912;51.034;6.984;2023-01-29T02:00:14;100981.78;;;-7.55;96.30
11712;BME280;5912;51.034;6.984;2023-01-29T02:02:42;100974.03;;;-7.53;96.66
11712;BME280;5912;51.034;6.984;2023-01-29T02:05:29;100950.56;;;-7.60;96.37
11712;BME280;5912;51.034;6.984;2023-01-29T02:08:17;100974.53;;;-7.47;96.49
11712;BME280;5912;51.034;6.984;2023-01-29T02:11:04;100973.56;;;-7.44;96.90
11712;BME280;5912;51.034;6.984;2023-01-29T02:13:30;100974.28;;;-7.42;96.41
11712;BME280;5912;51.034;6.984;2023-01-29T02:15:55;100975.69;;;-7.37;96.64
11712;BME280;5912;51.034;6.984;2023-01-29T02:18:20;100973.16;;;-7.37;96.18
11712;BME280;5912;51.034;6.984;2023-01-29T02:20:55;100959.22;;;-7.47;96.37
11712;BME280;5912;51.034;6.984;2023-01-29T02:23:49;100983.28;;;-7.35;95.73
11712;BME280;5912;51.034;6.984;2023-01-29T02:29:22;100962.19;;;-7.54;95.63
11712;BME280;5912;51.034;6.984;2023-01-29T02:32:04;100978.66;;;-7.44;96.24
11712;BME280;5912;51.034;6.984;2023-01-29T02:37:28;100984.31;;;-7.55;95.97
11712;BME280;5912;51.034;6.984;2023-01-29T02:40:11;100992.81;;;-7.54;95.87
11712;BME280;5912;51.034;6.984;2023-01-29T02:43:07;100991.22;;;-7.57;96.18
11712;BME280;5912;51.034;6.984;2023-01-29T02:48:58;101006.63;;;-7.58;96.02
11712;BME280;5912;51.034;6.984;2023-01-29T02:51:29;101014.44;;;-7.62;96.03
11712;BME280;5912;51.034;6.984;2023-01-29T02:54:03;101013.72;;;-7.63;95.81
11712;BME280;5912;51.034;6.984;2023-01-29T02:56:56;101018.91;;;-7.65;95.69
11712;BME280;5912;51.034;6.984;2023-01-29T02:59:29;101017.31;;;-7.68;95.77
11712;BME280;5912;51.034;6.984;2023-01-29T03:02:19;101018.47;;;-7.73;95.39
11712;BME280;5912;51.034;6.984;2023-01-29T03:04:53;101029.78;;;-7.79;95.68
11712;BME280;5912;51.034;6.984;2023-01-29T03:07:32;101030.88;;;-7.83;95.57
11712;BME280;5912;51.034;6.984;2023-01-29T03:10:28;101035.38;;;-7.88;95.88
11712;BME280;5912;51.034;6.984;2023-01-29T03:12:59;101035.59;;;-7.92;95.78
11712;BME280;5912;51.034;6.984;2023-01-29T03:15:34;101021.34;;;-7.96;95.71
11712;BME280;5912;51.034;6.984;2023-01-29T03:18:09;101017.88;;;-7.95;95.73
11712;BME280;5912;51.034;6.984;2023-01-29T03:20:41;101002.38;;;-7.91;95.70
11712;BME280;5912;51.034;6.984;2023-01-29T03:23:20;101010.53;;;-7.84;96.10
11712;BME280;5912;51.034;6.984;2023-01-29T03:26:07;101008.34;;;-7.75;96.38
11712;BME280;5912;51.034;6.984;2023-01-29T03:28:51;101008.59;;;-7.63;96.63
11712;BME280;5912;51.034;6.984;2023-01-29T03:31:36;100991.22;;;-7.57;96.73
11712;BME280;5912;51.034;6.984;2023-01-29T03:34:21;100986.78;;;-7.53;96.32
11712;BME280;5912;51.034;6.984;2023-01-29T03:37:05;100991.09;;;-7.54;96.02
11712;BME280;5912;51.034;6.984;2023-01-29T03:39:33;100993.56;;;-7.52;96.09
11712;BME280;5912;51.034;6.984;2023-01-29T03:47:45;101005.72;;;-7.57;95.73
11712;BME280;5912;51.034;6.984;2023-01-29T03:52:58;101004.63;;;-7.69;95.77
11712;BME280;5912;51.034;6.984;2023-01-29T03:55:37;100996.13;;;-7.85;95.16
11712;BME280;5912;51.034;6.984;2023-01-29T04:00:40;101022.78;;;-7.91;95.75
11712;BME280;5912;51.034;6.984;2023-01-29T04:03:35;101017.75;;;-7.92;95.14
11712;BME280;5912;51.034;6.984;2023-01-29T04:06:07;101007.75;;;-7.97;95.24
11712;BME280;5912;51.034;6.984;2023-01-29T04:08:39;100992.00;;;-8.05;95.29
11712;BME280;5912;51.034;6.984;2023-01-29T04:11:11;101005.97;;;-7.95;96.20
11712;BME280;5912;51.034;6.984;2023-01-29T04:13:39;100961.06;;;-8.14;95.95
11712;BME280;5912;51.034;6.984;2023-01-29T04:16:06;100987.94;;;-7.92;95.78
11712;BME280;5912;51.034;6.984;2023-01-29T04:18:34;100994.56;;;-7.88;95.94
11712;BME280;5912;51.034;6.984;2023-01-29T04:21:00;100987.59;;;-7.84;95.84
11712;BME280;5912;51.034;6.984;2023-01-29T04:23:26;100985.06;;;-7.86;95.58
11712;BME280;5912;51.034;6.984;2023-01-29T04:29:27;100968.63;;;-7.96;96.12
11712;BME280;5912;51.034;6.984;2023-01-29T04:32:25;100941.94;;;-8.06;96.15
11712;BME280;5912;51.034;6.984;2023-01-29T04:34:58;100959.81;;;-7.90;95.82
11712;BME280;5912;51.034;6.984;2023-01-29T04:37:43;100960.50;;;-7.87;96.26
11712;BME280;5912;51.034;6.984;2023-01-29T04:40:17;100952.91;;;-7.88;96.42
11712;BME280;5912;51.034;6.984;2023-01-29T04:42:54;100959.03;;;-7.75;96.80
11712;BME280;5912;51.034;6.984;2023-01-29T04:45:58;100965.53;;;-7.70;96.32
11712;BME280;5912;51.034;6.984;2023-01-29T04:48:56;100967.19;;;-7.69;95.85
11712;BME280;5912;51.034;6.984;2023-01-29T04:51:32;100961.50;;;-7.74;95.77
11712;BME280;5912;51.034;6.984;2023-01-29T04:54:10;100962.25;;;-7.72;96.35
11712;BME280;5912;51.034;6.984;2023-01-29T04:56:58;100962.41;;;-7.75;95.97
11712;BME280;5912;51.034;6.984;2023-01-29T04:59:37;100951.47;;;-7.77;96.22
11712;BME280;5912;51.034;6.984;2023-01-29T05:02:06;100935.81;;;-7.86;96.35
11712;BME280;5912;51.034;6.984;2023-01-29T05:04:34;100940.44;;;-7.77;96.81
11712;BME280;5912;51.034;6.984;2023-01-29T05:07:07;100932.84;;;-7.79;96.55
11712;BME280;5912;51.034;6.984;2023-01-29T05:09:36;100931.06;;;-7.77;96.73
11712;BME280;5912;51.034;6.984;2023-01-29T05:12:05;100931.84;;;-7.76;96.65
11712;BME280;5912;51.034;6.984;2023-01-29T05:14:33;100951.22;;;-7.72;96.19
11712;BME280;5912;51.034;6.984;2023-01-29T05:17:02;100946.94;;;-7.72;95.85
11712;BME280;5912;51.034;6.984;2023-01-29T05:19:29;100952.13;;;-7.73;95.95
11712;BME280;5912;51.034;6.984;2023-01-29T05:21:55;100941.94;;;-7.73;96.34
11712;BME280;5912;51.034;6.984;2023-01-29T05:24:23;100940.09;;;-7.71;95.94
11712;BME280;5912;51.034;6.984;2023-01-29T05:26:50;100931.06;;;-7.77;95.77
11712;BME280;5912;51.034;6.984;2023-01-29T05:29:35;100933.44;;;-7.74;95.89
11712;BME280;5912;51.034;6.984;2023-01-29T05:32:00;100932.38;;;-7.70;95.89
11712;BME280;5912;51.034;6.984;2023-01-29T05:34:26;100930.41;;;-7.65;95.62
11712;BME280;5912;51.034;6.984;2023-01-29T05:36:51;100935.41;;;-7.63;95.74
11712;BME280;5912;51.034;6.984;2023-01-29T05:39:17;100937.16;;;-7.63;95.69
11712;BME280;5912;51.034;6.984;2023-01-29T05:41:42;100896.41;;;-7.81;95.36
11712;BME280;5912;51.034;6.984;2023-01-29T05:44:11;100928.50;;;-7.61;95.92
11712;BME280;5912;51.034;6.984;2023-01-29T05:46:36;100919.22;;;-7.62;95.81
11712;BME280;5912;51.034;6.984;2023-01-29T05:49:02;100919.13;;;-7.60;95.83
11712;BME280;5912;51.034;6.984;2023-01-29T05:51:28;100926.03;;;-7.63;94.99
11712;BME280;5912;51.034;6.984;2023-01-29T05:53:53;100927.25;;;-7.70;95.59
11712;BME280;5912;51.034;6.984;2023-01-29T05:56:18;100934.63;;;-7.63;95.37
11712;BME280;5912;51.034;6.984;2023-01-29T05:58:44;100928.69;;;-7.64;95.71
11712;BME280;5912;51.034;6.984;2023-01-29T06:01:14;100934.53;;;-7.62;95.70
11712;BME280;5912;51.034;6.984;2023-01-29T06:03:41;100936.09;;;-7.59;94.81
11712;BME280;5912;51.034;6.984;2023-01-29T06:06:06;100940.94;;;-7.55;94.60
11712;BME280;5912;51.034;6.984;2023-01-29T06:08:32;100938.63;;;-7.59;94.71
11712;BME280;5912;51.034;6.984;2023-01-29T06:10:57;100936.84;;;-7.57;95.32
11712;BME280;5912;51.034;6.984;2023-01-29T06:13:22;100910.56;;;-7.75;95.14
11712;BME280;5912;51.034;6.984;2023-01-29T06:15:48;100941.94;;;-7.57;94.52
11712;BME280;5912;51.034;6.984;2023-01-29T06:18:13;100939.63;;;-7.62;94.19
11712;BME280;5912;51.034;6.984;2023-01-29T06:20:38;100945.72;;;-7.65;95.02
11712;BME280;5912;51.034;6.984;2023-01-29T06:23:04;100936.00;;;-7.74;94.64
11712;BME280;5912;51.034;6.984;2023-01-29T06:25:30;100936.66;;;-7.70;94.73
11712;BME280;5912;51.034;6.984;2023-01-29T06:27:55;100919.50;;;-7.84;94.30
11712;BME280;5912;51.034;6.984;2023-01-29T06:30:21;100941.19;;;-7.75;95.32
11712;BME280;5912;51.034;6.984;2023-01-29T06:32:46;100950.56;;;-7.76;95.35
11712;BME280;5912;51.034;6.984;2023-01-29T06:35:11;100956.56;;;-7.77;95.04
11712;BME280;5912;51.034;6.984;2023-01-29T06:37:36;100976.13;;;-7.77;94.60
11712;BME280;5912;51.034;6.984;2023-01-29T06:40:02;100974.34;;;-7.75;95.17
11712;BME280;5912;51.034;6.984;2023-01-29T06:42:28;100980.41;;;-7.78;94.91
11712;BME280;5912;51.034;6.984;2023-01-29T06:44:54;100981.16;;;-7.76;95.61
11712;BME280;5912;51.034;6.984;2023-01-29T06:47:20;100986.19;;;-7.74;94.73
11712;BME280;5912;51.034;6.984;2023-01-29T06:49:45;100992.13;;;-7.74;95.65
11712;BME280;5912;51.034;6.984;2023-01-29T06:52:11;101004.94;;;-7.75;95.62
11712;BME280;5912;51.034;6.984;2023-01-29T06:54:36;100985.03;;;-7.84;95.12
11712;BME280;5912;51.034;6.984;2023-01-29T06:57:01;100991.59;;;-7.80;95.80
11712;BME280;5912;51.034;6.984;2023-01-29T06:59:27;100987.94;;;-7.75;95.67
11712;BME280;5912;51.034;6.984;2023-01-29T07:01:52;100987.00;;;-7.74;95.44
11712;BME280;5912;51.034;6.984;2023-01-29T07:04:17;100985.22;;;-7.72;96.03
11712;BME280;5912;51.034;6.984;2023-01-29T07:06:42;100972.31;;;-7.69;95.49
11712;BME280;5912;51.034;6.984;2023-01-29T07:09:11;100976.66;;;-7.71;95.35
11712;BME280;5912;51.034;6.984;2023-01-29T07:11:37;100980.13;;;-7.72;95.46
11712;BME280;5912;51.034;6.984;2023-01-29T07:14:03;100980.31;;;-7.59;95.87
11712;BME280;5912;51.034;6.984;2023-01-29T07:16:28;100976.50;;;-7.52;95.44
11712;BME280;5912;51.034;6.984;2023-01-29T07:18:53;100978.50;;;-7.41;96.23
11712;BME280;5912;51.034;6.984;2023-01-29T07:21:19;100983.13;;;-7.32;95.20
11712;BME280;5912;51.034;6.984;2023-01-29T07:23:45;100977.59;;;-7.25;95.71
11712;BME280;5912;51.034;6.984;2023-01-29T07:26:10;100970.25;;;-7.15;94.86
11712;BME280;5912;51.034;6.984;2023-01-29T07:28:37;100980.78;;;-7.06;94.67
11712;BME280;5912;51.034;6.984;2023-01-29T07:31:03;100976.34;;;-7.02;94.74
11712;BME280;5912;51.034;6.984;2023-01-29T07:33:28;100971.72;;;-6.96;94.46
11712;BME280;5912;51.034;6.984;2023-01-29T07:35:54;100979.78;;;-6.88;94.16
11712;BME280;5912;51.034;6.984;2023-01-29T07:38:19;100972.88;;;-6.86;93.62
11712;BME280;5912;51.034;6.984;2023-01-29T07:40:45;100963.94;;;-6.79;93.88
11712;BME280;5912;51.034;6.984;2023-01-29T07:43:11;100953.31;;;-6.87;93.36
11712;BME280;5912;51.034;6.984;2023-01-29T07:45:37;100984.34;;;-6.63;93.08
11712;BME280;5912;51.034;6.984;2023-01-29T07:48:04;100981.56;;;-6.59;92.56
11712;BME280;5912;51.034;6.984;2023-01-29T07:50:31;100988.03;;;-6.53;92.35
11712;BME280;5912;51.034;6.984;2023-01-29T07:52:56;100975.00;;;-6.49;92.07
11712;BME280;5912;51.034;6.984;2023-01-29T07:55:23;100968.63;;;-6.42;91.77
11712;BME280;5912;51.034;6.984;2023-01-29T07:57:58;100946.06;;;-6.49;92.32
11712;BME280;5912;51.034;6.984;2023-01-29T08:00:24;100963.25;;;-6.37;92.22
11712;BME280;5912;51.034;6.984;2023-01-29T08:02:49;100961.81;;;-6.27;92.11
11712;BME280;5912;51.034;6.984;2023-01-29T08:05:15;100966.47;;;-6.20;91.16
11712;BME280;5912;51.034;6.984;2023-01-29T08:07:40;100973.16;;;-6.17;91.46
11712;BME280;5912;51.034;6.984;2023-01-29T08:10:06;100957.78;;;-6.17;90.92
11712;BME280;5912;51.034;6.984;2023-01-29T08:12:31;100975.47;;;-6.13;91.24
11712;BME280;5912;51.034;6.984;2023-01-29T08:14:56;100946.13;;;-6.21;91.13
11712;BME280;5912;51.034;6.984;2023-01-29T08:17:22;100961.47;;;-6.07;91.00
11712;BME280;5912;51.034;6.984;2023-01-29T08:19:47;100956.91;;;-6.02;90.92
11712;BME280;5912;51.034;6.984;2023-01-29T08:22:12;100970.44;;;-6.00;90.51
11712;BME280;5912;51.034;6.984;2023-01-29T08:24:39;100966.22;;;-6.01;90.86
11712;BME280;5912;51.034;6.984;2023-01-29T08:27:04;100974.81;;;-6.02;91.02
11712;BME280;5912;51.034;6.984;2023-01-29T08:29:30;100968.88;;;-6.02;91.10
11712;BME280;5912;51.034;6.984;2023-01-29T08:31:55;100967.16;;;-6.02;91.29
11712;BME280;5912;51.034;6.984;2023-01-29T08:34:20;100971.16;;;-5.98;91.28
11712;BME280;5912;51.034;6.984;2023-01-29T08:36:46;100978.69;;;-5.95;91.43
11712;BME280;5912;51.034;6.984;2023-01-29T08:39:11;100975.00;;;-5.91;91.58
11712;BME280;5912;51.034;6.984;2023-01-29T08:41:37;100967.34;;;-5.91;91.57
11712;BME280;5912;51.034;6.984;2023-01-29T08:44:02;100969.72;;;-5.88;91.33
11712;BME280;5912;51.034;6.984;2023-01-29T08:46:28;100960.22;;;-5.86;91.47
11712;BME280;5912;51.034;6.984;2023-01-29T08:48:54;100960.72;;;-5.81;91.47
11712;BME280;5912;51.034;6.984;2023-01-29T08:51:20;100956.16;;;-5.76;91.77
11712;BME280;5912;51.034;6.984;2023-01-29T08:53:46;100954.78;;;-5.67;91.33
11712;BME280;5912;51.034;6.984;2023-01-29T08:56:11;100927.09;;;-5.75;91.07
11712;BME280;5912;51.034;6.984;2023-01-29T08:58:36;100960.59;;;-5.51;90.53
11712;BME280;5912;51.034;6.984;2023-01-29T09:01:06;100969.75;;;-5.47;89.77
11712;BME280;5912;51.034;6.984;2023-01-29T09:03:32;100967.28;;;-5.49;89.74
11712;BME280;5912;51.034;6.984;2023-01-29T09:05:57;100970.38;;;-5.44;89.12
11712;BME280;5912;51.034;6.984;2023-01-29T09:08:22;100963.34;;;-5.40;89.77
11712;BME280;5912;51.034;6.984;2023-01-29T09:10:48;100963.03;;;-5.36;89.91
11712;BME280;5912;51.034;6.984;2023-01-29T09:13:13;100972.75;;;-5.27;89.79
11712;BME280;5912;51.034;6.984;2023-01-29T09:15:38;100967.88;;;-5.17;89.19
11712;BME280;5912;51.034;6.984;2023-01-29T09:18:04;100953.84;;;-5.12;89.37
11712;BME280;5912;51.034;6.984;2023-01-29T09:20:29;100955.13;;;-5.05;88.35
11712;BME280;5912;51.034;6.984;2023-01-29T09:22:55;100934.19;;;-5.11;87.89
11712;BME280;5912;51.034;6.984;2023-01-29T09:25:21;100939.34;;;-4.99;88.74
11712;BME280;5912;51.034;6.984;2023-01-29T09:27:46;100941.63;;;-4.94;87.68
11712;BME280;5912;51.034;6.984;2023-01-29T09:30:11;100937.31;;;-4.94;87.85
11712;BME280;5912;51.034;6.984;2023-01-29T09:32:37;100933.06;;;-4.81;88.31
11712;BME280;5912;51.034;6.984;2023-01-29T09:35:02;100935.03;;;-4.72;87.17
11712;BME280;5912;51.034;6.984;2023-01-29T09:37:28;100928.75;;;-4.68;87.69
11712;BME280;5912;51.034;6.984;2023-01-29T09:39:53;100928.81;;;-4.55;86.98
11712;BME280;5912;51.034;6.984;2023-01-29T09:42:27;100929.53;;;-4.40;87.10
11712;BME280;5912;51.034;6.984;2023-01-29T09:45:03;100925.75;;;-4.22;87.03
11712;BME280;5912;51.034;6.984;2023-01-29T09:47:32;100920.28;;;-4.05;87.16
11712;BME280;5912;51.034;6.984;2023-01-29T09:50:01;100882.53;;;-4.16;85.83
11712;BME280;5912;51.034;6.984;2023-01-29T09:52:39;100921.53;;;-3.86;85.28
11712;BME280;5912;51.034;6.984;2023-01-29T09:55:21;100904.28;;;-3.84;85.13
11712;BME280;5912;51.034;6.984;2023-01-29T09:57:55;100897.66;;;-3.75;83.89
11712;BME280;5912;51.034;6.984;2023-01-29T10:03:54;100885.41;;;-3.59;83.18
11712;BME280;5912;51.034;6.984;2023-01-29T10:09:27;100890.66;;;-3.37;83.45
11712;BME280;5912;51.034;6.984;2023-01-29T10:23:15;100898.47;;;-2.68;80.19
11712;BME280;5912;51.034;6.984;2023-01-29T10:25:43;100904.81;;;-2.61;79.74
11712;BME280;5912;51.034;6.984;2023-01-29T10:31:10;100893.91;;;-2.64;79.16
11712;BME280;5912;51.034;6.984;2023-01-29T10:33:42;100903.38;;;-2.65;78.36
11712;BME280;5912;51.034;6.984;2023-01-29T10:36:14;100876.13;;;-2.78;79.73
11712;BME280;5912;51.034;6.984;2023-01-29T10:38:49;100896.25;;;-2.61;78.68
11712;BME280;5912;51.034;6.984;2023-01-29T10:47:16;100906.66;;;-2.63;78.01
11712;BME280;5912;51.034;6.984;2023-01-29T10:50:02;100885.34;;;-2.76;78.30
11712;BME280;5912;51.034;6.984;2023-01-29T10:55:53;100848.78;;;-3.03;78.82
11712;BME280;5912;51.034;6.984;2023-01-29T10:58:44;100871.44;;;-2.73;79.54
11712;BME280;5912;51.034;6.984;2023-01-29T11:01:13;100872.75;;;-2.68;77.67
11712;BME280;5912;51.034;6.984;2023-01-29T11:03:38;100867.13;;;-2.62;77.54
11712;BME280;5912;51.034;6.984;2023-01-29T11:09:05;100854.16;;;-2.60;76.65
11712;BME280;5912;51.034;6.984;2023-01-29T11:11:38;100849.38;;;-2.54;77.28
11712;BME280;5912;51.034;6.984;2023-01-29T11:14:10;100838.63;;;-2.48;77.71
11712;BME280;5912;51.034;6.984;2023-01-29T11:16:45;100791.63;;;-2.61;75.83
11712;BME280;5912;51.034;6.984;2023-01-29T11:19:11;100840.53;;;-2.39;75.35
11712;BME280;5912;51.034;6.984;2023-01-29T11:21:52;100824.59;;;-2.44;74.57
11712;BME280;5912;51.034;6.984;2023-01-29T11:24:20;100824.84;;;-2.36;75.50
11712;BME280;5912;51.034;6.984;2023-01-29T11:26:47;100829.63;;;-2.20;74.86
11712;BME280;5912;51.034;6.984;2023-01-29T11:37:39;100813.34;;;-2.10;72.83
11712;BME280;5912;51.034;6.984;2023-01-29T11:40:32;100808.31;;;-2.00;72.17
11712;BME280;5912;51.034;6.984;2023-01-29T11:43:11;100809.72;;;-1.96;72.82
11712;BME280;5912;51.034;6.984;2023-01-29T11:45:38;100767.72;;;-2.19;71.72
11712;BME280;5912;51.034;6.984;2023-01-29T11:48:05;100808.91;;;-1.97;71.94
11712;BME280;5912;51.034;6.984;2023-01-29T11:50:36;100801.28;;;-1.98;71.53
11712;BME280;5912;51.034;6.984;2023-01-29T11:53:02;100795.19;;;-1.97;72.93
11712;BME280;5912;51.034;6.984;2023-01-29T11:55:31;100782.31;;;-1.97;72.52
11712;BME280;5912;51.034;6.984;2023-01-29T11:58:11;100779.41;;;-1.93;72.40
11712;BME280;5912;51.034;6.984;2023-01-29T12:00:39;100773.91;;;-1.88;73.22
11712;BME280;5912;51.034;6.984;2023-01-29T12:03:21;100764.38;;;-1.77;72.96
11712;BME280;5912;51.034;6.984;2023-01-29T12:05:57;100769.75;;;-1.80;71.74
11712;BME280;5912;51.034;6.984;2023-01-29T12:08:24;100758.06;;;-1.84;72.92
11712;BME280;5912;51.034;6.984;2023-01-29T12:10:50;100758.75;;;-1.71;73.30
11712;BME280;5912;51.034;6.984;2023-01-29T12:13:26;100759.63;;;-1.61;72.05
11712;BME280;5912;51.034;6.984;2023-01-29T12:16:10;100754.84;;;-1.65;72.38
11712;BME280;5912;51.034;6.984;2023-01-29T12:18:40;100756.00;;;-1.58;71.69
11712;BME280;5912;51.034;6.984;2023-01-29T12:23:47;100739.91;;;-1.51;71.87
11712;BME280;5912;51.034;6.984;2023-01-29T12:26:18;100738.63;;;-1.45;70.21
11712;BME280;5912;51.034;6.984;2023-01-29T12:28:53;100736.50;;;-1.40;70.03
11712;BME280;5912;51.034;6.984;2023-01-29T12:31:45;100719.25;;;-1.39;69.69
11712;BME280;5912;51.034;6.984;2023-01-29T12:34:42;100714.34;;;-1.42;68.90
11712;BME280;5912;51.034;6.984;2023-01-29T12:37:29;100704.59;;;-1.39;71.04
11712;BME280;5912;51.034;6.984;2023-01-29T12:40:00;100683.34;;;-1.31;70.60
11712;BME280;5912;51.034;6.984;2023-01-29T12:42:26;100674.34;;;-1.16;71.08
11712;BME280;5912;51.034;6.984;2023-01-29T12:44:58;100674.16;;;-1.04;70.46
11712;BME280;5912;51.034;6.984;2023-01-29T12:47:37;100666.16;;;-1.01;69.00
11712;BME280;5912;51.034;6.984;2023-01-29T12:52:42;100647.88;;;-0.88;68.38
11712;BME280;5912;51.034;6.984;2023-01-29T12:55:21;100649.94;;;-0.82;68.01
11712;BME280;5912;51.034;6.984;2023-01-29T12:58:15;100648.47;;;-0.75;66.70
11712;BME280;5912;51.034;6.984;2023-01-29T13:00:45;100637.63;;;-0.69;67.28
11712;BME280;5912;51.034;6.984;2023-01-29T13:05:50;100642.66;;;-0.68;65.97
11712;BME280;5912;51.034;6.984;2023-01-29T13:08:26;100641.16;;;-0.70;65.98
11712;BME280;5912;51.034;6.984;2023-01-29T13:10:55;100630.84;;;-0.70;66.42
11712;BME280;5912;51.034;6.984;2023-01-29T13:13:34;100633.72;;;-0.64;66.29
11712;BME280;5912;51.034;6.984;2023-01-29T13:16:04;100622.03;;;-0.58;66.65
11712;BME280;5912;51.034;6.984;2023-01-29T13:21:11;100613.88;;;-0.54;65.09
11712;BME280;5912;51.034;6.984;2023-01-29T13:23:41;100608.28;;;-0.59;64.17
11712;BME280;5912;51.034;6.984;2023-01-29T13:26:07;100596.19;;;-0.68;63.92
11712;BME280;5912;51.034;6.984;2023-01-29T13:28:33;100591.72;;;-0.66;65.39
11712;BME280;5912;51.034;6.984;2023-01-29T13:31:20;100590.50;;;-0.62;65.48
11712;BME280;5912;51.034;6.984;2023-01-29T13:33:53;100590.50;;;-0.52;67.42
11712;BME280;5912;51.034;6.984;2023-01-29T13:36:25;100582.66;;;-0.41;66.86
11712;BME280;5912;51.034;6.984;2023-01-29T13:39:00;100593.53;;;-0.28;65.52
11712;BME280;5912;51.034;6.984;2023-01-29T13:41:35;100559.28;;;-0.40;65.57
11712;BME280;5912;51.034;6.984;2023-01-29T13:44:03;100582.38;;;-0.29;63.03
11712;BME280;5912;51.034;6.984;2023-01-29T13:46:30;100566.22;;;-0.40;63.42
11712;BME280;5912;51.034;6.984;2023-01-29T13:48:56;100584.03;;;-0.37;63.64
11712;BME280;5912;51.034;6.984;2023-01-29T13:51:34;100550.19;;;-0.53;64.66
11712;BME280;5912;51.034;6.984;2023-01-29T13:54:15;100571.66;;;-0.43;64.56
11712;BME280;5912;51.034;6.984;2023-01-29T13:56:55;100565.25;;;-0.49;64.75
11712;BME280;5912;51.034;6.984;2023-01-29T13:59:47;100573.41;;;-0.44;64.22
11712;BME280;5912;51.034;6.984;2023-01-29T14:04:45;100555.06;;;-0.60;64.97
11712;BME280;5912;51.034;6.984;2023-01-29T14:10:16;100573.41;;;-0.53;65.61
11712;BME280;5912;51.034;6.984;2023-01-29T14:12:43;100582.09;;;-0.64;65.17
11712;BME280;5912;51.034;6.984;2023-01-29T14:15:19;100572.56;;;-0.63;66.63
11712;BME280;5912;51.034;6.984;2023-01-29T14:17:58;100577.31;;;-0.68;67.47
11712;BME280;5912;51.034;6.984;2023-01-29T14:23:48;100566.31;;;-0.70;68.66
11712;BME280;5912;51.034;6.984;2023-01-29T14:34:20;100566.03;;;-0.77;68.90
11712;BME280;5912;51.034;6.984;2023-01-29T14:36:48;100567.38;;;-0.82;68.58
11712;BME280;5912;51.034;6.984;2023-01-29T14:39:24;100566.44;;;-0.81;68.90
11712;BME280;5912;51.034;6.984;2023-01-29T14:41:52;100561.50;;;-0.84;68.92
11712;BME280;5912;51.034;6.984;2023-01-29T14:48:04;100533.50;;;-1.08;69.32
11712;BME280;5912;51.034;6.984;2023-01-29T14:55:38;100571.91;;;-1.05;68.81
11712;BME280;5912;51.034;6.984;2023-01-29T14:58:05;100569.72;;;-1.09;70.03
11712;BME280;5912;51.034;6.984;2023-01-29T15:00:36;100573.25;;;-1.10;70.67